createdAt,value
2019-05-11T00:01:44.763Z,21.80
2019-05-11T00:04:10.635Z,22.47
2019-05-11T00:06:36.505Z,21.97
2019-05-11T00:09:04.959Z,22.33
2019-05-11T00:11:30.817Z,25.83
2019-05-11T00:13:56.699Z,26.00
2019-05-11T00:16:23.394Z,24.23
2019-05-11T00:18:49.262Z,23.77
2019-05-11T00:21:15.115Z,23.73
2019-05-11T00:23:40.979Z,23.47
2019-05-11T00:26:06.846Z,24.03
2019-05-11T00:28:32.689Z,23.03
2019-05-11T00:30:58.549Z,23.77
2019-05-11T00:33:24.416Z,24.67
2019-05-11T00:35:50.304Z,30.73
2019-05-11T00:38:16.158Z,26.90
2019-05-11T00:40:42.009Z,24.60
2019-05-11T00:43:07.856Z,25.47
2019-05-11T00:45:33.718Z,27.83
2019-05-11T00:47:59.569Z,27.97
2019-05-11T00:50:38.167Z,27.33
2019-05-11T00:52:53.202Z,25.90
2019-05-11T00:55:19.065Z,26.27
2019-05-11T00:57:44.913Z,28.63
2019-05-11T01:00:11.889Z,28.83
2019-05-11T01:02:37.978Z,26.10
2019-05-11T01:05:04.951Z,31.07
2019-05-11T01:07:30.842Z,38.53
2019-05-11T01:09:56.661Z,30.53
2019-05-11T01:12:22.523Z,34.97
2019-05-11T01:14:48.458Z,37.93
2019-05-11T01:17:14.378Z,36.33
2019-05-11T01:19:40.223Z,40.63
2019-05-11T01:22:06.195Z,37.67
2019-05-11T01:24:32.351Z,41.33
2019-05-11T01:26:58.195Z,41.43
2019-05-11T01:29:24.061Z,41.20
2019-05-11T01:31:49.918Z,38.17
2019-05-11T01:34:15.787Z,34.83
2019-05-11T01:36:41.662Z,35.47
2019-05-11T01:39:07.508Z,37.77
2019-05-11T01:41:33.372Z,42.47
2019-05-11T01:43:59.232Z,39.70
2019-05-11T01:46:25.085Z,36.87
2019-05-11T01:48:50.977Z,38.10
2019-05-11T01:51:16.811Z,37.40
2019-05-11T01:53:42.659Z,37.40
2019-05-11T01:56:08.524Z,36.60
2019-05-11T01:58:34.422Z,35.57
2019-05-11T02:01:00.281Z,32.53
2019-05-11T02:03:26.148Z,34.00
2019-05-11T02:05:52.007Z,34.60
2019-05-11T02:08:17.870Z,38.83
2019-05-11T02:10:43.713Z,36.23
2019-05-11T02:13:09.578Z,32.63
2019-05-11T02:15:35.425Z,38.93
2019-05-11T02:18:01.321Z,39.20
2019-05-11T02:20:27.167Z,39.47
2019-05-11T02:22:53.035Z,36.90
2019-05-11T02:25:18.878Z,34.97
2019-05-11T02:27:44.749Z,37.70
2019-05-11T02:30:11.407Z,38.40
2019-05-11T02:32:37.294Z,39.23
2019-05-11T02:35:06.151Z,38.97
2019-05-11T02:37:31.998Z,34.07
2019-05-11T02:39:57.849Z,32.47
2019-05-11T02:42:23.723Z,30.23
2019-05-11T02:44:49.608Z,31.07
2019-05-11T02:47:15.445Z,33.63
2019-05-11T02:49:41.289Z,31.13
2019-05-11T02:52:08.070Z,30.00
2019-05-11T02:54:34.126Z,34.07
2019-05-11T02:56:59.990Z,27.63
2019-05-11T02:59:29.653Z,31.57
2019-05-11T03:01:53.625Z,30.97
2019-05-11T03:04:19.472Z,32.47
2019-05-11T03:06:45.334Z,29.57
2019-05-11T03:09:11.217Z,28.60
2019-05-11T03:11:54.001Z,24.83
2019-05-11T03:14:04.837Z,24.70
2019-05-11T03:16:30.700Z,29.87
2019-05-11T03:18:56.564Z,24.67
2019-05-11T03:21:22.410Z,23.17
2019-05-11T03:23:49.112Z,22.23
2019-05-11T03:26:14.963Z,23.47
2019-05-11T03:28:40.842Z,23.83
2019-05-11T03:31:06.707Z,25.87
2019-05-11T03:33:32.549Z,25.23
2019-05-11T03:35:58.413Z,25.40
2019-05-11T03:38:24.262Z,23.20
2019-05-11T03:40:50.137Z,33.87
2019-05-11T03:43:16.003Z,20.57
2019-05-11T03:45:41.842Z,27.03
2019-05-11T03:48:07.685Z,26.40
2019-05-11T03:50:33.552Z,28.57
2019-05-11T03:52:59.405Z,26.27
2019-05-11T03:55:25.301Z,25.43
2019-05-11T03:57:51.114Z,27.00
2019-05-11T04:00:17.177Z,25.23
2019-05-11T04:02:43.026Z,22.70
2019-05-11T04:05:09.217Z,28.03
2019-05-11T04:07:35.070Z,23.30
2019-05-11T04:10:00.952Z,28.33
2019-05-11T04:12:34.708Z,22.77
2019-05-11T04:14:54.611Z,27.40
2019-05-11T04:17:21.866Z,25.87
2019-05-11T04:19:48.536Z,31.23
2019-05-11T04:22:14.388Z,28.97
2019-05-11T04:24:40.261Z,33.30
2019-05-11T04:27:06.137Z,27.23
2019-05-11T04:29:31.985Z,24.33
2019-05-11T04:31:57.864Z,24.73
2019-05-11T04:34:23.744Z,18.80
2019-05-11T04:36:49.591Z,26.37
2019-05-11T04:39:15.449Z,22.80
2019-05-11T04:41:41.297Z,23.70
2019-05-11T04:44:07.149Z,28.30
2019-05-11T04:46:33.033Z,21.87
2019-05-11T04:48:58.881Z,27.00
2019-05-11T04:51:24.725Z,24.20
2019-05-11T04:53:50.611Z,21.07
2019-05-11T04:56:16.466Z,20.23
2019-05-11T04:58:42.331Z,22.10
2019-05-11T05:01:08.214Z,18.27
2019-05-11T05:03:40.728Z,22.87
2019-05-11T05:06:21.269Z,24.33
2019-05-11T05:08:29.628Z,21.57
2019-05-11T05:10:58.638Z,24.43
2019-05-11T05:13:29.228Z,15.20
2019-05-11T05:15:51.017Z,20.87
2019-05-11T05:18:16.873Z,17.77
2019-05-11T05:20:43.986Z,16.27
2019-05-11T05:23:10.091Z,21.93
2019-05-11T05:25:35.959Z,23.03
2019-05-11T05:28:02.670Z,21.70
2019-05-11T05:30:28.514Z,19.93
2019-05-11T05:32:54.395Z,16.10
2019-05-11T05:35:20.268Z,20.30
2019-05-11T05:37:46.127Z,14.00
2019-05-11T05:40:12.181Z,23.27
2019-05-11T05:42:38.153Z,15.90
2019-05-11T05:45:05.913Z,20.23
2019-05-11T05:47:31.781Z,16.57
2019-05-11T05:49:57.644Z,17.57
2019-05-11T05:52:23.507Z,21.87
2019-05-11T05:54:49.360Z,18.53
2019-05-11T05:57:15.232Z,15.70
2019-05-11T05:59:41.102Z,19.17
2019-05-11T06:02:06.957Z,13.40
2019-05-11T06:04:32.822Z,13.67
2019-05-11T06:06:58.697Z,19.27
2019-05-11T06:09:24.551Z,19.80
2019-05-11T06:11:50.398Z,26.97
2019-05-11T06:14:16.276Z,20.13
2019-05-11T06:16:42.160Z,12.90
2019-05-11T06:19:08.028Z,16.47
2019-05-11T06:21:33.869Z,16.43
2019-05-11T06:24:06.150Z,21.10
2019-05-11T06:26:27.552Z,17.23
2019-05-11T06:28:53.444Z,16.13
2019-05-11T06:31:19.294Z,16.37
2019-05-11T06:33:45.208Z,15.67
2019-05-11T06:36:11.053Z,19.90
2019-05-11T06:38:36.920Z,21.37
2019-05-11T06:41:02.773Z,19.90
2019-05-11T06:43:28.693Z,13.80
2019-05-11T06:45:54.537Z,19.00
2019-05-11T06:48:20.456Z,17.30
2019-05-11T06:50:46.372Z,16.60
2019-05-11T06:53:12.243Z,14.73
2019-05-11T06:55:38.095Z,16.37
2019-05-11T06:58:04.130Z,14.77
2019-05-11T07:00:30.049Z,15.27
2019-05-11T07:02:55.882Z,22.40
2019-05-11T07:05:21.750Z,15.30
2019-05-11T07:07:48.108Z,18.00
2019-05-11T07:10:14.377Z,16.17
2019-05-11T07:12:40.246Z,13.83
2019-05-11T07:15:06.807Z,19.90
2019-05-11T07:17:32.669Z,15.20
2019-05-11T07:19:58.543Z,16.27
2019-05-11T07:22:24.705Z,16.70
2019-05-11T07:24:50.555Z,16.13
2019-05-11T07:27:16.419Z,18.07
2019-05-11T07:29:42.306Z,17.20
2019-05-11T07:32:20.016Z,15.40
2019-05-11T07:34:38.222Z,18.13
2019-05-11T07:37:03.689Z,17.20
2019-05-11T07:39:29.542Z,15.73
2019-05-11T07:41:55.411Z,15.67
2019-05-11T07:44:35.037Z,16.13
2019-05-11T07:46:49.033Z,15.13
2019-05-11T07:49:14.889Z,14.23
2019-05-11T07:51:40.736Z,17.07
2019-05-11T07:54:08.413Z,28.17
2019-05-11T07:56:34.362Z,14.43
2019-05-11T07:59:00.215Z,17.37
2019-05-11T08:01:28.218Z,18.33
2019-05-11T08:03:53.834Z,23.10
2019-05-11T08:06:19.700Z,20.83
2019-05-11T08:08:45.552Z,13.10
2019-05-11T08:11:11.409Z,16.50
2019-05-11T08:13:38.889Z,12.27
2019-05-11T08:16:04.969Z,16.20
2019-05-11T08:18:30.818Z,18.93
2019-05-11T08:20:58.289Z,17.10
2019-05-11T08:23:24.336Z,17.70
2019-05-11T08:25:50.220Z,12.63
2019-05-11T08:28:18.189Z,13.67
2019-05-11T08:30:43.848Z,14.37
2019-05-11T08:33:09.720Z,13.60
2019-05-11T08:35:35.570Z,11.03
2019-05-11T08:38:01.426Z,12.30
2019-05-11T08:40:28.873Z,18.63
2019-05-11T08:42:54.941Z,15.97
2019-05-11T08:45:24.572Z,19.17
2019-05-11T08:47:48.736Z,15.00
2019-05-11T08:50:15.465Z,12.43
2019-05-11T08:52:41.496Z,13.43
2019-05-11T08:55:08.507Z,14.03
2019-05-11T08:57:34.514Z,15.83
2019-05-11T09:00:00.382Z,14.97
2019-05-11T09:02:27.820Z,11.87
2019-05-11T09:04:53.939Z,20.50
2019-05-11T09:07:19.800Z,13.40
2019-05-11T09:09:45.662Z,9.77
2019-05-11T09:12:11.525Z,13.03
2019-05-11T09:14:38.690Z,18.10
2019-05-11T09:17:04.717Z,17.17
2019-05-11T09:19:30.577Z,15.53
2019-05-11T09:21:58.704Z,13.53
2019-05-11T09:24:24.196Z,14.43
2019-05-11T09:26:50.068Z,15.13
2019-05-11T09:29:17.997Z,16.13
2019-05-11T09:31:44.509Z,10.90
2019-05-11T09:34:10.372Z,11.70
2019-05-11T09:36:38.525Z,10.23
2019-05-11T09:39:08.260Z,10.57
2019-05-11T09:41:33.951Z,7.13
2019-05-11T09:43:59.804Z,9.47
2019-05-11T09:46:27.751Z,14.27
2019-05-11T09:48:53.424Z,16.83
2019-05-11T09:51:19.303Z,17.50
2019-05-11T09:53:45.162Z,11.63
2019-05-11T09:56:11.031Z,12.03
2019-05-11T09:58:38.668Z,9.70
2019-05-11T10:01:04.670Z,13.93
2019-05-11T10:03:30.597Z,10.23
2019-05-11T10:05:57.954Z,13.13
2019-05-11T10:08:24.277Z,10.10
2019-05-11T10:10:52.476Z,14.50
2019-05-11T10:13:18.687Z,12.50
2019-05-11T10:15:59.297Z,11.73
2019-05-11T10:18:12.347Z,12.83
2019-05-11T10:20:39.217Z,12.03
2019-05-11T10:23:05.253Z,9.97
2019-05-11T10:25:31.133Z,11.30
2019-05-11T10:27:57.998Z,13.37
2019-05-11T10:30:23.957Z,10.07
2019-05-11T10:32:50.150Z,14.17
2019-05-11T10:35:18.172Z,8.60
2019-05-11T10:37:43.877Z,11.83
2019-05-11T10:40:12.075Z,10.73
2019-05-11T10:42:38.045Z,12.67
2019-05-11T10:45:05.565Z,10.33
2019-05-11T10:47:31.389Z,15.03
2019-05-11T10:49:57.896Z,8.90
2019-05-11T10:52:24.026Z,11.00
2019-05-11T10:54:49.938Z,11.87
2019-05-11T10:57:15.785Z,13.07
2019-05-11T10:59:41.741Z,8.43
2019-05-11T11:02:08.098Z,7.73
2019-05-11T11:04:34.308Z,10.13
2019-05-11T11:07:00.314Z,13.87
2019-05-11T11:09:28.162Z,14.50
2019-05-11T11:11:54.208Z,11.20
2019-05-11T11:14:20.077Z,11.10
2019-05-11T11:16:47.846Z,11.50
2019-05-11T11:19:13.682Z,15.33
2019-05-11T11:21:39.575Z,10.00
2019-05-11T11:24:07.500Z,12.10
2019-05-11T11:26:33.179Z,12.33
2019-05-11T11:28:59.050Z,10.37
2019-05-11T11:31:24.905Z,9.80
2019-05-11T11:33:50.750Z,9.63
2019-05-11T11:36:17.957Z,10.13
2019-05-11T11:38:43.970Z,9.67
2019-05-11T11:41:09.826Z,8.20
2019-05-11T11:43:37.640Z,13.47
2019-05-11T11:46:03.471Z,20.73
2019-05-11T11:48:29.353Z,7.87
2019-05-11T11:50:55.201Z,5.07
2019-05-11T11:53:21.069Z,12.40
2019-05-11T11:55:48.179Z,10.30
2019-05-11T11:58:14.169Z,5.27
2019-05-11T12:00:40.097Z,8.60
2019-05-11T12:03:08.009Z,9.93
2019-05-11T12:05:33.821Z,6.40
2019-05-11T12:07:59.698Z,5.10
2019-05-11T12:10:25.578Z,6.53
2019-05-11T12:12:51.433Z,7.53
2019-05-11T12:15:17.820Z,6.57
2019-05-11T12:17:43.748Z,5.43
2019-05-11T12:20:09.692Z,6.63
2019-05-11T12:22:35.579Z,10.00
2019-05-11T12:25:01.442Z,6.30
2019-05-11T12:27:28.692Z,6.27
2019-05-11T12:29:54.802Z,7.83
2019-05-11T12:32:23.422Z,6.33
2019-05-11T12:34:49.304Z,6.53
2019-05-11T12:37:15.239Z,7.13
2019-05-11T12:39:41.087Z,11.17
2019-05-11T12:42:08.593Z,10.73
2019-05-11T12:44:34.602Z,8.20
2019-05-11T12:47:00.469Z,10.03
2019-05-11T12:49:28.668Z,11.13
2019-05-11T12:51:54.173Z,4.50
2019-05-11T12:54:20.033Z,7.90
2019-05-11T12:56:45.888Z,9.50
2019-05-11T12:59:11.754Z,8.70
2019-05-11T13:01:38.098Z,6.90
2019-05-11T13:04:04.168Z,11.73
2019-05-11T13:06:30.043Z,6.67
2019-05-11T13:08:55.898Z,8.40
2019-05-11T13:11:21.757Z,8.33
2019-05-11T13:13:48.361Z,9.67
2019-05-11T13:16:14.585Z,6.47
2019-05-11T13:18:40.443Z,8.20
2019-05-11T13:21:07.713Z,6.57
2019-05-11T13:23:33.660Z,9.53
2019-05-11T13:25:59.529Z,7.73
2019-05-11T13:28:25.379Z,10.70
2019-05-11T13:30:51.246Z,4.97
2019-05-11T13:33:19.076Z,10.03
2019-05-11T13:35:45.006Z,11.90
2019-05-11T13:38:10.875Z,12.17
2019-05-11T13:40:38.178Z,14.20
2019-05-11T13:43:04.386Z,9.97
2019-05-11T13:50:24.405Z,11.53
2019-05-11T13:52:50.288Z,9.13
2019-05-11T13:55:17.891Z,5.37
2019-05-11T13:57:43.919Z,7.90
2019-05-11T14:00:10.185Z,4.43
2019-05-11T14:02:37.992Z,7.90
2019-05-11T14:05:06.108Z,8.40
2019-05-11T14:07:31.966Z,9.00
2019-05-11T14:09:58.893Z,3.77
2019-05-11T14:12:24.886Z,4.30
2019-05-11T14:14:50.746Z,9.90
2019-05-11T14:17:18.675Z,6.17
2019-05-11T14:19:44.400Z,5.47
2019-05-11T14:22:10.267Z,6.37
2019-05-11T14:24:37.607Z,11.23
2019-05-11T14:27:03.596Z,6.70
2019-05-11T14:29:29.461Z,11.93
2019-05-11T14:31:55.304Z,7.60
2019-05-11T14:34:21.677Z,6.93
2019-05-11T14:36:48.139Z,7.07
2019-05-11T14:39:13.985Z,6.67
2019-05-11T14:41:39.849Z,5.90
2019-05-11T14:44:05.789Z,6.63
2019-05-11T14:46:31.696Z,4.50
2019-05-11T14:48:58.547Z,4.53
2019-05-11T14:51:24.416Z,5.73
2019-05-11T14:53:50.299Z,9.30
2019-05-11T14:56:18.758Z,4.63
2019-05-11T14:58:43.906Z,5.50
2019-05-11T15:01:09.764Z,6.97
2019-05-11T15:03:37.861Z,7.07
2019-05-11T15:06:03.390Z,6.70
2019-05-11T15:08:29.249Z,8.07
2019-05-11T15:10:55.158Z,4.53
2019-05-11T15:13:21.054Z,4.37
2019-05-11T15:15:48.745Z,7.53
2019-05-11T15:18:14.657Z,5.13
2019-05-11T15:20:40.522Z,5.63
2019-05-11T15:23:08.619Z,3.70
2019-05-11T15:25:34.199Z,4.97
2019-05-11T15:28:00.054Z,5.77
2019-05-11T15:30:25.908Z,7.97
2019-05-11T15:32:51.759Z,8.00
2019-05-11T15:35:18.693Z,7.37
2019-05-11T15:37:44.888Z,3.17
2019-05-11T15:40:15.819Z,5.03
2019-05-11T15:42:42.024Z,5.10
2019-05-11T15:45:10.612Z,2.73
2019-05-11T15:47:37.734Z,6.50
2019-05-11T15:50:08.140Z,5.10
2019-05-11T15:52:33.741Z,4.67
2019-05-11T15:54:59.598Z,7.23
2019-05-11T15:57:25.484Z,4.77
2019-05-11T15:59:51.358Z,6.47
2019-05-11T16:02:17.977Z,5.83
2019-05-11T16:04:43.917Z,4.03
2019-05-11T16:07:09.792Z,5.83
2019-05-11T16:09:37.886Z,7.00
2019-05-11T16:12:03.427Z,5.77
2019-05-11T16:14:29.293Z,5.60
2019-05-11T16:16:55.204Z,7.73
2019-05-11T16:19:21.074Z,5.43
2019-05-11T16:21:46.939Z,7.17
2019-05-11T16:24:12.786Z,9.97
2019-05-11T16:26:38.990Z,3.70
2019-05-11T16:29:04.834Z,5.40
2019-05-11T16:31:30.704Z,3.10
2019-05-11T16:33:58.762Z,4.90
2019-05-11T16:36:24.348Z,3.73
2019-05-11T16:38:50.413Z,6.13
2019-05-11T16:41:17.897Z,5.27
2019-05-11T16:43:44.045Z,4.30
2019-05-11T16:46:09.897Z,4.23
2019-05-11T16:48:38.127Z,8.47
2019-05-11T16:51:03.529Z,2.77
2019-05-11T16:53:29.412Z,3.80
2019-05-11T16:55:57.595Z,3.80
2019-05-11T16:58:23.131Z,4.80
2019-05-11T17:00:49.324Z,4.07
2019-05-11T17:03:15.273Z,4.20
2019-05-11T17:05:41.146Z,4.20
2019-05-11T17:08:08.114Z,3.50
2019-05-11T17:10:34.071Z,3.93
2019-05-11T17:12:59.924Z,5.90
2019-05-11T17:15:25.780Z,5.93
2019-05-11T17:17:51.636Z,6.00
2019-05-11T17:20:18.742Z,4.97
2019-05-11T17:22:44.948Z,8.87
2019-05-11T17:25:10.806Z,5.90
2019-05-11T17:27:37.691Z,6.27
2019-05-11T17:30:08.637Z,3.87
2019-05-11T17:32:35.105Z,9.27
2019-05-11T17:35:01.183Z,11.33
2019-05-11T17:37:28.603Z,3.77
2019-05-11T17:39:54.708Z,7.80
2019-05-11T17:42:20.585Z,5.20
2019-05-11T17:44:48.411Z,4.50
2019-05-11T17:47:14.209Z,2.80
2019-05-11T17:49:40.091Z,4.63
2019-05-11T17:52:08.011Z,9.03
2019-05-11T17:54:33.692Z,5.97
2019-05-11T17:56:59.590Z,4.67
2019-05-11T17:59:27.886Z,8.37
2019-05-11T18:01:53.150Z,7.27
2019-05-11T18:04:19.015Z,4.70
2019-05-11T18:06:44.873Z,4.73
2019-05-11T18:09:10.734Z,6.57
2019-05-11T18:11:38.058Z,7.30
2019-05-11T18:14:04.391Z,6.43
2019-05-11T18:16:30.243Z,9.10
2019-05-11T18:18:58.335Z,6.17
2019-05-11T18:21:23.908Z,7.50
2019-05-11T18:23:49.773Z,3.77
2019-05-11T18:26:17.938Z,9.80
2019-05-11T18:28:43.409Z,3.00
2019-05-11T18:31:09.270Z,4.13
2019-05-11T18:33:35.166Z,8.60
2019-05-11T18:36:01.019Z,8.70
2019-05-11T18:38:27.625Z,6.87
2019-05-11T18:40:53.674Z,3.37
2019-05-11T18:43:19.541Z,7.53
2019-05-11T18:45:45.402Z,8.33
2019-05-11T18:48:11.295Z,5.13
2019-05-11T18:50:38.409Z,10.83
2019-05-11T18:53:04.517Z,5.13
2019-05-11T18:55:30.484Z,10.70
2019-05-11T18:57:58.079Z,3.93
2019-05-11T19:00:24.016Z,7.83
2019-05-11T19:02:50.098Z,6.20
2019-05-11T19:05:18.066Z,7.07
2019-05-11T19:07:43.806Z,6.10
2019-05-11T19:10:09.873Z,5.97
2019-05-11T19:12:37.699Z,5.87
2019-05-11T19:15:07.726Z,3.30
2019-05-11T19:17:33.757Z,8.03
2019-05-11T19:19:59.648Z,5.80
2019-05-11T19:22:25.537Z,2.63
2019-05-11T19:24:51.390Z,3.23
2019-05-11T19:27:18.567Z,5.17
2019-05-11T19:29:44.629Z,8.50
2019-05-11T19:32:11.149Z,8.23
2019-05-11T19:34:38.777Z,3.67
2019-05-11T19:37:04.846Z,3.43
2019-05-11T19:39:30.709Z,2.27
2019-05-11T19:41:58.098Z,3.67
2019-05-11T19:44:23.976Z,3.20
2019-05-11T19:46:49.843Z,4.80
2019-05-11T19:49:15.713Z,4.10
2019-05-11T19:51:42.516Z,4.10
2019-05-11T19:54:08.627Z,7.80
2019-05-11T19:56:34.578Z,2.60
2019-05-11T19:59:00.437Z,6.83
2019-05-11T20:01:27.928Z,4.40
2019-05-11T20:03:53.993Z,5.63
2019-05-11T20:06:19.854Z,4.00
2019-05-11T20:08:45.757Z,7.07
2019-05-11T20:11:11.617Z,8.10
2019-05-11T20:13:38.811Z,4.33
2019-05-11T20:16:04.890Z,2.17
2019-05-11T20:18:30.766Z,3.13
2019-05-11T20:20:56.730Z,4.50
2019-05-11T20:23:22.594Z,6.63
2019-05-11T20:25:48.602Z,4.43
2019-05-11T20:28:14.478Z,2.40
2019-05-11T20:30:40.344Z,4.60
2019-05-11T20:33:08.568Z,6.30
2019-05-11T20:35:34.033Z,9.07
2019-05-11T20:37:59.928Z,7.80
2019-05-11T20:40:25.801Z,4.63
2019-05-11T20:42:51.694Z,6.67
2019-05-11T20:45:18.524Z,8.70
2019-05-11T20:47:44.908Z,7.90
2019-05-11T20:50:10.913Z,5.60
2019-05-11T20:52:38.966Z,5.13
2019-05-11T20:55:05.436Z,6.30
2019-05-11T20:57:31.296Z,4.57
2019-05-11T20:59:57.573Z,7.47
2019-05-11T21:02:23.509Z,2.40
2019-05-11T21:04:49.399Z,8.63
2019-05-11T21:07:15.252Z,4.17
2019-05-11T21:09:41.129Z,4.53
2019-05-11T21:12:08.184Z,3.73
2019-05-11T21:14:34.134Z,4.60
2019-05-11T21:17:00.021Z,6.70
2019-05-11T21:19:28.169Z,3.93
2019-05-11T21:21:54.033Z,3.43
2019-05-11T21:24:19.998Z,4.00
2019-05-11T21:26:47.883Z,7.20
2019-05-11T21:29:13.604Z,7.70
2019-05-11T21:31:40.756Z,1.53
2019-05-11T21:34:08.204Z,5.73
2019-05-11T21:36:34.181Z,4.93
2019-05-11T21:39:00.047Z,5.70
2019-05-11T21:41:28.223Z,3.13
2019-05-11T21:43:53.667Z,3.87
2019-05-11T21:46:19.574Z,9.80
2019-05-11T21:48:47.668Z,3.50
2019-05-11T21:51:13.186Z,5.60
2019-05-11T21:53:39.219Z,5.73
2019-05-11T21:56:05.080Z,7.27
2019-05-11T21:58:30.938Z,4.43
2019-05-11T22:00:56.991Z,4.43
2019-05-11T22:03:22.851Z,6.43
2019-05-11T22:05:48.714Z,11.57
2019-05-11T22:08:14.592Z,8.27
2019-05-11T22:10:40.441Z,4.87
2019-05-11T22:13:06.322Z,7.93
2019-05-11T22:15:32.170Z,4.87
2019-05-11T22:17:58.531Z,4.97
2019-05-11T22:20:24.602Z,5.67
2019-05-11T22:22:50.462Z,6.87
2019-05-11T22:25:18.378Z,4.43
2019-05-11T22:27:44.069Z,7.17
2019-05-11T22:30:10.529Z,6.20
2019-05-11T22:32:38.372Z,7.07
2019-05-11T22:35:08.267Z,6.80
2019-05-11T22:37:34.104Z,3.83
2019-05-11T22:39:59.977Z,6.70
2019-05-11T22:42:28.029Z,6.50
2019-05-11T22:44:53.595Z,7.80
2019-05-11T22:47:19.485Z,6.60
2019-05-11T22:49:45.323Z,4.73
2019-05-11T22:52:11.182Z,5.07
2019-05-11T22:54:38.315Z,6.53
2019-05-11T22:57:04.380Z,9.40
2019-05-11T22:59:30.235Z,5.83
2019-05-11T23:01:56.084Z,4.30
2019-05-11T23:04:21.943Z,7.13
2019-05-11T23:06:47.853Z,11.60
2019-05-11T23:09:13.643Z,4.37
2019-05-11T23:11:39.517Z,8.87
2019-05-11T23:14:05.396Z,7.23
2019-05-11T23:16:31.213Z,6.33
2019-05-11T23:18:57.320Z,7.23
2019-05-11T23:21:23.169Z,6.73
2019-05-11T23:23:49.026Z,8.37
2019-05-11T23:26:14.878Z,11.50
2019-05-11T23:28:40.730Z,5.20
2019-05-11T23:31:08.901Z,6.63
2019-05-11T23:33:34.393Z,6.43
2019-05-11T23:36:00.300Z,9.43
2019-05-11T23:38:28.134Z,10.87
2019-05-11T23:40:53.922Z,7.73
2019-05-11T23:43:19.881Z,6.27
2019-05-11T23:45:45.793Z,6.93
2019-05-11T23:48:11.646Z,7.30
2019-05-11T23:50:38.867Z,8.30
2019-05-11T23:53:06.826Z,8.00
2019-05-11T23:55:32.658Z,5.90
2019-05-11T23:57:58.506Z,6.77
